sensor_id;sensor_type;location;lat;lon;timestamp;P1;durP1;ratioP1;P2;durP2;ratioP2
15608;SDS011;64278;45.642;13.756;2023-05-16T00:01:24;2.35;;;1.35;;
15608;SDS011;64278;45.642;13.756;2023-05-16T00:03:54;1.73;;;1.27;;
15608;SDS011;64278;45.642;13.756;2023-05-16T00:06:20;1.85;;;1.65;;
15608;SDS011;64278;45.642;13.756;2023-05-16T00:08:47;2.03;;;1.58;;
15608;SDS011;64278;45.642;13.756;2023-05-16T00:11:13;2.15;;;1.38;;
15608;SDS011;64278;45.642;13.756;2023-05-16T00:13:38;3.03;;;1.58;;
15608;SDS011;64278;45.642;13.756;2023-05-16T00:16:06;1.60;;;1.50;;
15608;SDS011;64278;45.642;13.756;2023-05-16T00:18:32;1.25;;;1.15;;
15608;SDS011;64278;45.642;13.756;2023-05-16T00:21:01;1.25;;;1.05;;
15608;SDS011;64278;45.642;13.756;2023-05-16T00:23:28;1.35;;;1.25;;
15608;SDS011;64278;45.642;13.756;2023-05-16T00:25:54;1.50;;;1.30;;
15608;SDS011;64278;45.642;13.756;2023-05-16T00:28:20;1.77;;;1.15;;
15608;SDS011;64278;45.642;13.756;2023-05-16T00:30:46;1.58;;;1.10;;
15608;SDS011;64278;45.642;13.756;2023-05-16T00:33:12;1.20;;;1.10;;
15608;SDS011;64278;45.642;13.756;2023-05-16T00:35:38;2.72;;;1.40;;
15608;SDS011;64278;45.642;13.756;2023-05-16T00:38:04;1.60;;;1.15;;
15608;SDS011;64278;45.642;13.756;2023-05-16T00:40:30;1.73;;;1.50;;
15608;SDS011;64278;45.642;13.756;2023-05-16T00:42:56;1.30;;;1.20;;
15608;SDS011;64278;45.642;13.756;2023-05-16T00:45:22;1.17;;;1.10;;
15608;SDS011;64278;45.642;13.756;2023-05-16T00:47:48;1.00;;;1.00;;
15608;SDS011;64278;45.642;13.756;2023-05-16T00:50:15;1.38;;;1.20;;
15608;SDS011;64278;45.642;13.756;2023-05-16T00:52:42;1.42;;;1.08;;
15608;SDS011;64278;45.642;13.756;2023-05-16T00:55:08;1.40;;;1.30;;
15608;SDS011;64278;45.642;13.756;2023-05-16T00:57:37;1.30;;;1.20;;
15608;SDS011;64278;45.642;13.756;2023-05-16T01:00:06;1.33;;;1.23;;
15608;SDS011;64278;45.642;13.756;2023-05-16T01:02:36;1.25;;;1.15;;
15608;SDS011;64278;45.642;13.756;2023-05-16T01:05:02;2.22;;;1.05;;
15608;SDS011;64278;45.642;13.756;2023-05-16T01:07:32;1.00;;;0.90;;
15608;SDS011;64278;45.642;13.756;2023-05-16T01:09:59;1.23;;;1.08;;
15608;SDS011;64278;45.642;13.756;2023-05-16T01:12:31;1.20;;;0.98;;
15608;SDS011;64278;45.642;13.756;2023-05-16T01:15:27;1.35;;;0.90;;
15608;SDS011;64278;45.642;13.756;2023-05-16T01:18:02;0.95;;;0.90;;
15608;SDS011;64278;45.642;13.756;2023-05-16T01:20:35;1.20;;;1.15;;
15608;SDS011;64278;45.642;13.756;2023-05-16T01:26:21;2.05;;;1.23;;
15608;SDS011;64278;45.642;13.756;2023-05-16T01:28:49;1.15;;;1.05;;
15608;SDS011;64278;45.642;13.756;2023-05-16T01:31:16;0.93;;;0.90;;
15608;SDS011;64278;45.642;13.756;2023-05-16T01:33:42;0.90;;;0.90;;
15608;SDS011;64278;45.642;13.756;2023-05-16T01:42:15;2.40;;;1.00;;
15608;SDS011;64278;45.642;13.756;2023-05-16T01:44:59;1.67;;;0.93;;
15608;SDS011;64278;45.642;13.756;2023-05-16T01:47:38;0.73;;;0.73;;
15608;SDS011;64278;45.642;13.756;2023-05-16T01:50:07;1.50;;;1.40;;
15608;SDS011;64278;45.642;13.756;2023-05-16T01:52:39;0.93;;;0.90;;
15608;SDS011;64278;45.642;13.756;2023-05-16T01:55:25;0.93;;;0.93;;
15608;SDS011;64278;45.642;13.756;2023-05-16T01:58:03;2.83;;;1.38;;
15608;SDS011;64278;45.642;13.756;2023-05-16T02:00:31;0.82;;;0.82;;
15608;SDS011;64278;45.642;13.756;2023-05-16T02:02:57;1.08;;;0.98;;
15608;SDS011;64278;45.642;13.756;2023-05-16T02:05:22;2.03;;;1.55;;
15608;SDS011;64278;45.642;13.756;2023-05-16T02:07:48;1.00;;;0.90;;
15608;SDS011;64278;45.642;13.756;2023-05-16T02:10:14;0.88;;;0.88;;
15608;SDS011;64278;45.642;13.756;2023-05-16T02:12:40;0.73;;;0.73;;
15608;SDS011;64278;45.642;13.756;2023-05-16T02:15:05;1.30;;;1.20;;
15608;SDS011;64278;45.642;13.756;2023-05-16T02:17:31;0.82;;;0.82;;
15608;SDS011;64278;45.642;13.756;2023-05-16T02:19:57;3.03;;;0.90;;
15608;SDS011;64278;45.642;13.756;2023-05-16T02:22:23;0.80;;;0.80;;
15608;SDS011;64278;45.642;13.756;2023-05-16T02:24:49;1.15;;;0.88;;
15608;SDS011;64278;45.642;13.756;2023-05-16T02:27:15;0.82;;;0.82;;
15608;SDS011;64278;45.642;13.756;2023-05-16T02:29:40;1.60;;;0.93;;
15608;SDS011;64278;45.642;13.756;2023-05-16T02:32:06;1.80;;;1.08;;
15608;SDS011;64278;45.642;13.756;2023-05-16T02:34:32;1.20;;;0.80;;
15608;SDS011;64278;45.642;13.756;2023-05-16T02:36:57;1.10;;;1.00;;
15608;SDS011;64278;45.642;13.756;2023-05-16T02:39:23;1.00;;;0.90;;
15608;SDS011;64278;45.642;13.756;2023-05-16T02:41:49;0.85;;;0.80;;
15608;SDS011;64278;45.642;13.756;2023-05-16T02:44:14;1.02;;;0.90;;
15608;SDS011;64278;45.642;13.756;2023-05-16T02:46:40;0.80;;;0.80;;
15608;SDS011;64278;45.642;13.756;2023-05-16T02:49:06;1.10;;;1.02;;
15608;SDS011;64278;45.642;13.756;2023-05-16T02:51:31;0.82;;;0.80;;
15608;SDS011;64278;45.642;13.756;2023-05-16T02:53:57;0.90;;;0.90;;
15608;SDS011;64278;45.642;13.756;2023-05-16T02:56:25;1.00;;;0.60;;
15608;SDS011;64278;45.642;13.756;2023-05-16T02:58:52;0.80;;;0.80;;
15608;SDS011;64278;45.642;13.756;2023-05-16T03:01:18;0.75;;;0.75;;
15608;SDS011;64278;45.642;13.756;2023-05-16T03:03:44;1.23;;;1.05;;
15608;SDS011;64278;45.642;13.756;2023-05-16T03:06:10;1.20;;;0.90;;
15608;SDS011;64278;45.642;13.756;2023-05-16T03:08:36;1.10;;;1.00;;
15608;SDS011;64278;45.642;13.756;2023-05-16T03:11:02;0.90;;;0.90;;
15608;SDS011;64278;45.642;13.756;2023-05-16T03:13:27;0.80;;;0.80;;
15608;SDS011;64278;45.642;13.756;2023-05-16T03:15:54;1.25;;;0.90;;
15608;SDS011;64278;45.642;13.756;2023-05-16T03:18:20;0.70;;;0.70;;
15608;SDS011;64278;45.642;13.756;2023-05-16T03:20:45;1.17;;;1.10;;
15608;SDS011;64278;45.642;13.756;2023-05-16T03:23:11;2.47;;;0.88;;
15608;SDS011;64278;45.642;13.756;2023-05-16T03:25:37;1.23;;;0.90;;
15608;SDS011;64278;45.642;13.756;2023-05-16T03:28:05;0.82;;;0.82;;
15608;SDS011;64278;45.642;13.756;2023-05-16T03:30:32;0.90;;;0.90;;
15608;SDS011;64278;45.642;13.756;2023-05-16T03:32:58;1.00;;;1.00;;
15608;SDS011;64278;45.642;13.756;2023-05-16T03:35:24;1.20;;;1.10;;
15608;SDS011;64278;45.642;13.756;2023-05-16T03:37:49;0.95;;;0.95;;
15608;SDS011;64278;45.642;13.756;2023-05-16T03:40:15;1.08;;;0.98;;
15608;SDS011;64278;45.642;13.756;2023-05-16T03:42:42;0.80;;;0.80;;
15608;SDS011;64278;45.642;13.756;2023-05-16T03:45:07;0.90;;;0.85;;
15608;SDS011;64278;45.642;13.756;2023-05-16T03:47:33;1.00;;;0.98;;
15608;SDS011;64278;45.642;13.756;2023-05-16T03:49:59;0.98;;;0.90;;
15608;SDS011;64278;45.642;13.756;2023-05-16T03:52:25;1.42;;;0.90;;
15608;SDS011;64278;45.642;13.756;2023-05-16T03:54:50;0.90;;;0.90;;
15608;SDS011;64278;45.642;13.756;2023-05-16T03:57:16;0.90;;;0.80;;
15608;SDS011;64278;45.642;13.756;2023-05-16T03:59:41;1.10;;;1.00;;
15608;SDS011;64278;45.642;13.756;2023-05-16T04:02:08;1.05;;;1.05;;
15608;SDS011;64278;45.642;13.756;2023-05-16T04:04:33;1.17;;;1.00;;
15608;SDS011;64278;45.642;13.756;2023-05-16T04:07:00;0.85;;;0.85;;
15608;SDS011;64278;45.642;13.756;2023-05-16T04:09:26;1.13;;;0.68;;
15608;SDS011;64278;45.642;13.756;2023-05-16T04:11:51;0.60;;;0.60;;
15608;SDS011;64278;45.642;13.756;2023-05-16T04:14:19;0.88;;;0.88;;
15608;SDS011;64278;45.642;13.756;2023-05-16T04:16:45;0.90;;;0.90;;
15608;SDS011;64278;45.642;13.756;2023-05-16T04:19:10;1.00;;;0.93;;
15608;SDS011;64278;45.642;13.756;2023-05-16T04:21:36;0.88;;;0.88;;
15608;SDS011;64278;45.642;13.756;2023-05-16T04:24:02;0.90;;;0.82;;
15608;SDS011;64278;45.642;13.756;2023-05-16T04:26:28;1.35;;;1.00;;
15608;SDS011;64278;45.642;13.756;2023-05-16T04:28:54;1.23;;;0.93;;
15608;SDS011;64278;45.642;13.756;2023-05-16T04:31:20;1.08;;;1.02;;
15608;SDS011;64278;45.642;13.756;2023-05-16T04:33:47;1.27;;;1.00;;
15608;SDS011;64278;45.642;13.756;2023-05-16T04:36:13;0.90;;;0.90;;
15608;SDS011;64278;45.642;13.756;2023-05-16T04:38:39;0.88;;;0.88;;
15608;SDS011;64278;45.642;13.756;2023-05-16T04:41:05;0.85;;;0.80;;
15608;SDS011;64278;45.642;13.756;2023-05-16T04:43:31;0.98;;;0.90;;
15608;SDS011;64278;45.642;13.756;2023-05-16T04:45:57;1.35;;;1.23;;
15608;SDS011;64278;45.642;13.756;2023-05-16T04:48:23;2.47;;;1.10;;
15608;SDS011;64278;45.642;13.756;2023-05-16T04:50:49;0.82;;;0.82;;
15608;SDS011;64278;45.642;13.756;2023-05-16T04:53:15;1.10;;;1.00;;
15608;SDS011;64278;45.642;13.756;2023-05-16T04:55:41;0.88;;;0.80;;
15608;SDS011;64278;45.642;13.756;2023-05-16T04:58:06;0.73;;;0.73;;
15608;SDS011;64278;45.642;13.756;2023-05-16T05:00:32;1.35;;;1.25;;
15608;SDS011;64278;45.642;13.756;2023-05-16T05:02:58;1.77;;;0.90;;
15608;SDS011;64278;45.642;13.756;2023-05-16T05:05:24;1.08;;;0.93;;
15608;SDS011;64278;45.642;13.756;2023-05-16T05:07:50;1.20;;;1.08;;
15608;SDS011;64278;45.642;13.756;2023-05-16T05:10:16;0.85;;;0.80;;
15608;SDS011;64278;45.642;13.756;2023-05-16T05:12:42;0.95;;;0.80;;
15608;SDS011;64278;45.642;13.756;2023-05-16T05:15:07;0.80;;;0.80;;
15608;SDS011;64278;45.642;13.756;2023-05-16T05:17:33;0.77;;;0.77;;
15608;SDS011;64278;45.642;13.756;2023-05-16T05:19:59;0.80;;;0.80;;
15608;SDS011;64278;45.642;13.756;2023-05-16T05:22:25;0.90;;;0.90;;
15608;SDS011;64278;45.642;13.756;2023-05-16T05:24:50;0.80;;;0.80;;
15608;SDS011;64278;45.642;13.756;2023-05-16T05:27:16;1.02;;;1.02;;
15608;SDS011;64278;45.642;13.756;2023-05-16T05:29:41;3.05;;;1.20;;
15608;SDS011;64278;45.642;13.756;2023-05-16T05:32:07;0.98;;;0.98;;
15608;SDS011;64278;45.642;13.756;2023-05-16T05:34:33;1.20;;;1.13;;
15608;SDS011;64278;45.642;13.756;2023-05-16T05:36:59;0.90;;;0.90;;
15608;SDS011;64278;45.642;13.756;2023-05-16T05:39:24;1.10;;;1.00;;
15608;SDS011;64278;45.642;13.756;2023-05-16T05:41:50;1.52;;;1.00;;
15608;SDS011;64278;45.642;13.756;2023-05-16T05:44:16;1.23;;;0.98;;
15608;SDS011;64278;45.642;13.756;2023-05-16T05:46:42;1.00;;;1.00;;
15608;SDS011;64278;45.642;13.756;2023-05-16T05:49:08;1.02;;;1.00;;
15608;SDS011;64278;45.642;13.756;2023-05-16T05:51:34;1.10;;;1.10;;
15608;SDS011;64278;45.642;13.756;2023-05-16T05:54:00;0.93;;;0.93;;
15608;SDS011;64278;45.642;13.756;2023-05-16T05:56:26;1.13;;;1.13;;
15608;SDS011;64278;45.642;13.756;2023-05-16T05:58:52;1.00;;;1.00;;
15608;SDS011;64278;45.642;13.756;2023-05-16T06:01:17;1.05;;;0.77;;
15608;SDS011;64278;45.642;13.756;2023-05-16T06:03:45;0.90;;;0.90;;
15608;SDS011;64278;45.642;13.756;2023-05-16T06:06:11;0.80;;;0.80;;
15608;SDS011;64278;45.642;13.756;2023-05-16T06:08:36;0.88;;;0.88;;
15608;SDS011;64278;45.642;13.756;2023-05-16T06:11:02;0.90;;;0.90;;
15608;SDS011;64278;45.642;13.756;2023-05-16T06:13:28;0.80;;;0.80;;
15608;SDS011;64278;45.642;13.756;2023-05-16T06:15:54;1.20;;;1.10;;
15608;SDS011;64278;45.642;13.756;2023-05-16T06:18:20;1.00;;;1.00;;
15608;SDS011;64278;45.642;13.756;2023-05-16T06:20:45;0.90;;;0.90;;
15608;SDS011;64278;45.642;13.756;2023-05-16T06:23:11;1.20;;;1.10;;
15608;SDS011;64278;45.642;13.756;2023-05-16T06:25:37;0.77;;;0.75;;
15608;SDS011;64278;45.642;13.756;2023-05-16T06:28:03;1.38;;;1.08;;
15608;SDS011;64278;45.642;13.756;2023-05-16T06:30:29;0.93;;;0.93;;
15608;SDS011;64278;45.642;13.756;2023-05-16T06:32:54;0.82;;;0.80;;
15608;SDS011;64278;45.642;13.756;2023-05-16T06:35:20;0.98;;;0.90;;
15608;SDS011;64278;45.642;13.756;2023-05-16T06:37:47;1.05;;;0.95;;
15608;SDS011;64278;45.642;13.756;2023-05-16T06:40:13;1.30;;;1.08;;
15608;SDS011;64278;45.642;13.756;2023-05-16T06:42:38;1.23;;;1.13;;
15608;SDS011;64278;45.642;13.756;2023-05-16T06:45:04;1.25;;;1.25;;
15608;SDS011;64278;45.642;13.756;2023-05-16T06:47:31;1.17;;;1.10;;
15608;SDS011;64278;45.642;13.756;2023-05-16T06:49:56;0.95;;;0.82;;
15608;SDS011;64278;45.642;13.756;2023-05-16T06:52:22;2.03;;;1.10;;
15608;SDS011;64278;45.642;13.756;2023-05-16T06:54:48;2.05;;;1.50;;
15608;SDS011;64278;45.642;13.756;2023-05-16T06:57:13;1.30;;;1.20;;
15608;SDS011;64278;45.642;13.756;2023-05-16T06:59:39;3.42;;;1.77;;
15608;SDS011;64278;45.642;13.756;2023-05-16T07:02:05;1.65;;;1.55;;
15608;SDS011;64278;45.642;13.756;2023-05-16T07:04:31;2.67;;;1.33;;
15608;SDS011;64278;45.642;13.756;2023-05-16T07:06:58;3.08;;;1.85;;
15608;SDS011;64278;45.642;13.756;2023-05-16T07:09:24;1.52;;;1.42;;
15608;SDS011;64278;45.642;13.756;2023-05-16T07:11:49;2.13;;;1.90;;
15608;SDS011;64278;45.642;13.756;2023-05-16T07:14:15;2.65;;;1.60;;
15608;SDS011;64278;45.642;13.756;2023-05-16T07:16:40;2.58;;;1.50;;
15608;SDS011;64278;45.642;13.756;2023-05-16T07:19:06;1.92;;;1.38;;
15608;SDS011;64278;45.642;13.756;2023-05-16T07:21:32;1.40;;;1.30;;
15608;SDS011;64278;45.642;13.756;2023-05-16T07:23:58;2.80;;;1.50;;
15608;SDS011;64278;45.642;13.756;2023-05-16T07:26:23;1.70;;;1.60;;
15608;SDS011;64278;45.642;13.756;2023-05-16T07:28:49;2.42;;;1.50;;
15608;SDS011;64278;45.642;13.756;2023-05-16T07:31:15;1.35;;;1.25;;
15608;SDS011;64278;45.642;13.756;2023-05-16T07:33:41;1.83;;;1.20;;
15608;SDS011;64278;45.642;13.756;2023-05-16T07:36:07;2.28;;;1.15;;
15608;SDS011;64278;45.642;13.756;2023-05-16T07:38:34;1.70;;;1.20;;
15608;SDS011;64278;45.642;13.756;2023-05-16T07:41:00;4.18;;;1.63;;
15608;SDS011;64278;45.642;13.756;2023-05-16T07:43:25;1.65;;;1.45;;
15608;SDS011;64278;45.642;13.756;2023-05-16T07:45:51;1.92;;;1.50;;
15608;SDS011;64278;45.642;13.756;2023-05-16T07:48:17;4.10;;;1.30;;
15608;SDS011;64278;45.642;13.756;2023-05-16T07:50:43;1.50;;;1.23;;
15608;SDS011;64278;45.642;13.756;2023-05-16T07:53:08;1.77;;;1.40;;
15608;SDS011;64278;45.642;13.756;2023-05-16T07:55:34;1.65;;;1.33;;
15608;SDS011;64278;45.642;13.756;2023-05-16T07:58:00;1.25;;;1.15;;
15608;SDS011;64278;45.642;13.756;2023-05-16T08:00:27;1.48;;;1.38;;
15608;SDS011;64278;45.642;13.756;2023-05-16T08:02:53;2.15;;;1.50;;
15608;SDS011;64278;45.642;13.756;2023-05-16T08:05:18;2.55;;;1.48;;
15608;SDS011;64278;45.642;13.756;2023-05-16T08:07:44;1.63;;;1.20;;
15608;SDS011;64278;45.642;13.756;2023-05-16T08:10:10;4.38;;;1.40;;
15608;SDS011;64278;45.642;13.756;2023-05-16T08:12:35;2.63;;;1.27;;
15608;SDS011;64278;45.642;13.756;2023-05-16T08:15:02;1.90;;;1.35;;
15608;SDS011;64278;45.642;13.756;2023-05-16T08:17:28;1.67;;;1.40;;
15608;SDS011;64278;45.642;13.756;2023-05-16T08:19:53;1.63;;;1.40;;
15608;SDS011;64278;45.642;13.756;2023-05-16T08:22:20;2.28;;;1.35;;
15608;SDS011;64278;45.642;13.756;2023-05-16T08:24:45;2.15;;;1.48;;
15608;SDS011;64278;45.642;13.756;2023-05-16T08:27:11;2.15;;;1.60;;
15608;SDS011;64278;45.642;13.756;2023-05-16T08:29:37;1.75;;;1.30;;
15608;SDS011;64278;45.642;13.756;2023-05-16T08:32:02;1.52;;;1.23;;
15608;SDS011;64278;45.642;13.756;2023-05-16T08:34:32;1.42;;;1.33;;
15608;SDS011;64278;45.642;13.756;2023-05-16T08:36:58;2.65;;;1.38;;
15608;SDS011;64278;45.642;13.756;2023-05-16T08:39:24;2.15;;;1.52;;
15608;SDS011;64278;45.642;13.756;2023-05-16T08:41:50;2.22;;;1.20;;
15608;SDS011;64278;45.642;13.756;2023-05-16T08:44:16;1.30;;;1.20;;
15608;SDS011;64278;45.642;13.756;2023-05-16T08:46:49;2.05;;;1.30;;
15608;SDS011;64278;45.642;13.756;2023-05-16T08:49:19;3.15;;;1.90;;
15608;SDS011;64278;45.642;13.756;2023-05-16T08:51:45;3.22;;;1.80;;
15608;SDS011;64278;45.642;13.756;2023-05-16T08:54:12;1.98;;;1.70;;
15608;SDS011;64278;45.642;13.756;2023-05-16T08:56:42;3.05;;;2.20;;
15608;SDS011;64278;45.642;13.756;2023-05-16T08:59:09;2.38;;;2.05;;
15608;SDS011;64278;45.642;13.756;2023-05-16T09:01:36;3.70;;;1.90;;
15608;SDS011;64278;45.642;13.756;2023-05-16T09:04:03;3.55;;;1.73;;
15608;SDS011;64278;45.642;13.756;2023-05-16T09:06:31;3.38;;;1.85;;
15608;SDS011;64278;45.642;13.756;2023-05-16T09:08:56;3.03;;;1.83;;
15608;SDS011;64278;45.642;13.756;2023-05-16T09:11:22;2.17;;;1.80;;
15608;SDS011;64278;45.642;13.756;2023-05-16T09:13:48;2.63;;;1.48;;
15608;SDS011;64278;45.642;13.756;2023-05-16T09:16:15;2.00;;;1.60;;
15608;SDS011;64278;45.642;13.756;2023-05-16T09:18:42;3.80;;;1.40;;
15608;SDS011;64278;45.642;13.756;2023-05-16T09:21:09;2.55;;;2.35;;
15608;SDS011;64278;45.642;13.756;2023-05-16T09:23:35;4.95;;;2.78;;
15608;SDS011;64278;45.642;13.756;2023-05-16T09:26:02;4.95;;;2.75;;
15608;SDS011;64278;45.642;13.756;2023-05-16T09:28:31;5.50;;;3.17;;
15608;SDS011;64278;45.642;13.756;2023-05-16T09:30:56;4.57;;;3.13;;
15608;SDS011;64278;45.642;13.756;2023-05-16T09:33:26;5.30;;;2.90;;
15608;SDS011;64278;45.642;13.756;2023-05-16T09:38:22;4.93;;;4.43;;
15608;SDS011;64278;45.642;13.756;2023-05-16T09:40:49;6.93;;;3.65;;
15608;SDS011;64278;45.642;13.756;2023-05-16T09:43:16;3.97;;;3.28;;
15608;SDS011;64278;45.642;13.756;2023-05-16T09:45:44;4.32;;;3.35;;
15608;SDS011;64278;45.642;13.756;2023-05-16T09:48:11;7.18;;;3.50;;
15608;SDS011;64278;45.642;13.756;2023-05-16T09:50:39;5.35;;;3.22;;
15608;SDS011;64278;45.642;13.756;2023-05-16T09:53:06;3.88;;;3.47;;
15608;SDS011;64278;45.642;13.756;2023-05-16T09:55:33;6.43;;;3.38;;
15608;SDS011;64278;45.642;13.756;2023-05-16T09:57:58;3.38;;;2.70;;
15608;SDS011;64278;45.642;13.756;2023-05-16T10:00:31;3.63;;;3.17;;
15608;SDS011;64278;45.642;13.756;2023-05-16T10:02:58;7.60;;;3.38;;
15608;SDS011;64278;45.642;13.756;2023-05-16T10:05:25;3.28;;;3.03;;
15608;SDS011;64278;45.642;13.756;2023-05-16T10:07:55;3.75;;;3.08;;
15608;SDS011;64278;45.642;13.756;2023-05-16T10:10:22;3.67;;;2.60;;
15608;SDS011;64278;45.642;13.756;2023-05-16T10:12:48;3.13;;;2.78;;
15608;SDS011;64278;45.642;13.756;2023-05-16T10:15:15;5.72;;;2.58;;
15608;SDS011;64278;45.642;13.756;2023-05-16T10:17:42;5.50;;;2.83;;
15608;SDS011;64278;45.642;13.756;2023-05-16T10:20:13;5.15;;;2.50;;
15608;SDS011;64278;45.642;13.756;2023-05-16T10:22:40;6.43;;;2.50;;
15608;SDS011;64278;45.642;13.756;2023-05-16T10:27:35;4.60;;;2.60;;
15608;SDS011;64278;45.642;13.756;2023-05-16T10:30:01;4.88;;;2.22;;
15608;SDS011;64278;45.642;13.756;2023-05-16T10:32:29;5.18;;;2.22;;
15608;SDS011;64278;45.642;13.756;2023-05-16T10:34:55;7.93;;;2.30;;
15608;SDS011;64278;45.642;13.756;2023-05-16T10:37:24;4.20;;;2.30;;
15608;SDS011;64278;45.642;13.756;2023-05-16T10:39:51;5.20;;;2.30;;
15608;SDS011;64278;45.642;13.756;2023-05-16T10:42:17;3.33;;;1.63;;
15608;SDS011;64278;45.642;13.756;2023-05-16T10:44:44;5.75;;;2.33;;
15608;SDS011;64278;45.642;13.756;2023-05-16T10:47:10;4.88;;;2.17;;
15608;SDS011;64278;45.642;13.756;2023-05-16T10:49:38;3.25;;;1.95;;
15608;SDS011;64278;45.642;13.756;2023-05-16T10:52:12;7.60;;;1.75;;
15608;SDS011;64278;45.642;13.756;2023-05-16T10:54:43;3.08;;;1.88;;
15608;SDS011;64278;45.642;13.756;2023-05-16T10:57:17;3.30;;;2.03;;
15608;SDS011;64278;45.642;13.756;2023-05-16T10:59:47;3.42;;;1.60;;
15608;SDS011;64278;45.642;13.756;2023-05-16T11:02:21;3.85;;;1.75;;
15608;SDS011;64278;45.642;13.756;2023-05-16T11:04:58;4.32;;;2.13;;
15608;SDS011;64278;45.642;13.756;2023-05-16T11:07:25;6.32;;;2.10;;
15608;SDS011;64278;45.642;13.756;2023-05-16T11:12:50;2.00;;;1.35;;
15608;SDS011;64278;45.642;13.756;2023-05-16T11:17:48;2.63;;;1.50;;
15608;SDS011;64278;45.642;13.756;2023-05-16T11:20:29;4.78;;;1.60;;
15608;SDS011;64278;45.642;13.756;2023-05-16T11:23:19;3.30;;;1.48;;
15608;SDS011;64278;45.642;13.756;2023-05-16T11:25:55;2.20;;;1.38;;
15608;SDS011;64278;45.642;13.756;2023-05-16T11:28:25;2.88;;;1.90;;
15608;SDS011;64278;45.642;13.756;2023-05-16T11:30:53;2.30;;;1.42;;
15608;SDS011;64278;45.642;13.756;2023-05-16T11:33:21;3.00;;;1.50;;
15608;SDS011;64278;45.642;13.756;2023-05-16T11:38:32;4.65;;;1.65;;
15608;SDS011;64278;45.642;13.756;2023-05-16T11:41:05;2.38;;;1.63;;
15608;SDS011;64278;45.642;13.756;2023-05-16T11:43:40;1.83;;;1.20;;
15608;SDS011;64278;45.642;13.756;2023-05-16T11:46:10;2.03;;;1.38;;
15608;SDS011;64278;45.642;13.756;2023-05-16T11:48:40;2.78;;;1.45;;
15608;SDS011;64278;45.642;13.756;2023-05-16T11:51:06;2.88;;;1.65;;
15608;SDS011;64278;45.642;13.756;2023-05-16T11:53:33;1.13;;;1.02;;
15608;SDS011;64278;45.642;13.756;2023-05-16T11:55:59;1.67;;;1.23;;
15608;SDS011;64278;45.642;13.756;2023-05-16T11:58:26;1.55;;;1.15;;
15608;SDS011;64278;45.642;13.756;2023-05-16T12:00:52;1.70;;;1.00;;
15608;SDS011;64278;45.642;13.756;2023-05-16T12:03:18;1.98;;;1.20;;
15608;SDS011;64278;45.642;13.756;2023-05-16T12:05:54;2.22;;;1.50;;
15608;SDS011;64278;45.642;13.756;2023-05-16T12:08:21;1.35;;;1.10;;
15608;SDS011;64278;45.642;13.756;2023-05-16T12:10:49;1.15;;;0.98;;
15608;SDS011;64278;45.642;13.756;2023-05-16T12:13:17;1.63;;;1.40;;
15608;SDS011;64278;45.642;13.756;2023-05-16T12:15:44;2.47;;;1.60;;
15608;SDS011;64278;45.642;13.756;2023-05-16T12:18:10;1.10;;;0.95;;
15608;SDS011;64278;45.642;13.756;2023-05-16T12:20:36;2.30;;;1.27;;
15608;SDS011;64278;45.642;13.756;2023-05-16T12:23:02;2.33;;;1.13;;
15608;SDS011;64278;45.642;13.756;2023-05-16T12:25:32;1.58;;;1.25;;
15608;SDS011;64278;45.642;13.756;2023-05-16T12:28:02;1.40;;;1.30;;
15608;SDS011;64278;45.642;13.756;2023-05-16T12:30:30;3.05;;;0.90;;
15608;SDS011;64278;45.642;13.756;2023-05-16T12:32:57;1.20;;;1.10;;
15608;SDS011;64278;45.642;13.756;2023-05-16T12:35:30;1.88;;;1.20;;
15608;SDS011;64278;45.642;13.756;2023-05-16T12:37:57;1.15;;;1.05;;
15608;SDS011;64278;45.642;13.756;2023-05-16T12:40:30;1.35;;;1.13;;
15608;SDS011;64278;45.642;13.756;2023-05-16T12:42:56;1.48;;;0.95;;
15608;SDS011;64278;45.642;13.756;2023-05-16T12:45:22;0.98;;;0.90;;
15608;SDS011;64278;45.642;13.756;2023-05-16T12:47:48;1.52;;;1.10;;
15608;SDS011;64278;45.642;13.756;2023-05-16T12:50:14;2.28;;;0.90;;
15608;SDS011;64278;45.642;13.756;2023-05-16T12:52:59;2.85;;;1.38;;
15608;SDS011;64278;45.642;13.756;2023-05-16T12:55:25;1.10;;;0.90;;
15608;SDS011;64278;45.642;13.756;2023-05-16T12:57:51;1.52;;;0.90;;
15608;SDS011;64278;45.642;13.756;2023-05-16T13:00:19;0.80;;;0.80;;
15608;SDS011;64278;45.642;13.756;2023-05-16T13:02:48;1.15;;;0.80;;
15608;SDS011;64278;45.642;13.756;2023-05-16T13:05:14;2.00;;;0.93;;
15608;SDS011;64278;45.642;13.756;2023-05-16T13:07:40;1.30;;;0.82;;
15608;SDS011;64278;45.642;13.756;2023-05-16T13:10:06;1.60;;;1.50;;
15608;SDS011;64278;45.642;13.756;2023-05-16T13:12:39;2.10;;;1.00;;
15608;SDS011;64278;45.642;13.756;2023-05-16T13:15:05;2.05;;;1.10;;
15608;SDS011;64278;45.642;13.756;2023-05-16T13:17:33;1.85;;;0.98;;
15608;SDS011;64278;45.642;13.756;2023-05-16T13:19:59;1.10;;;0.80;;
15608;SDS011;64278;45.642;13.756;2023-05-16T13:22:25;1.48;;;1.02;;
15608;SDS011;64278;45.642;13.756;2023-05-16T13:24:51;1.58;;;1.00;;
15608;SDS011;64278;45.642;13.756;2023-05-16T13:27:17;1.70;;;1.13;;
15608;SDS011;64278;45.642;13.756;2023-05-16T13:29:43;2.17;;;1.30;;
15608;SDS011;64278;45.642;13.756;2023-05-16T13:32:08;1.45;;;1.23;;
15608;SDS011;64278;45.642;13.756;2023-05-16T13:34:34;1.48;;;1.15;;
15608;SDS011;64278;45.642;13.756;2023-05-16T13:37:00;3.38;;;1.52;;
15608;SDS011;64278;45.642;13.756;2023-05-16T13:39:26;2.42;;;1.48;;
15608;SDS011;64278;45.642;13.756;2023-05-16T13:41:51;1.63;;;1.30;;
15608;SDS011;64278;45.642;13.756;2023-05-16T13:44:17;2.15;;;1.13;;
15608;SDS011;64278;45.642;13.756;2023-05-16T13:46:43;2.20;;;1.48;;
15608;SDS011;64278;45.642;13.756;2023-05-16T13:49:09;4.25;;;1.48;;
15608;SDS011;64278;45.642;13.756;2023-05-16T13:51:35;1.67;;;1.33;;
15608;SDS011;64278;45.642;13.756;2023-05-16T13:54:00;1.60;;;1.27;;
15608;SDS011;64278;45.642;13.756;2023-05-16T13:56:26;1.60;;;1.50;;
15608;SDS011;64278;45.642;13.756;2023-05-16T13:58:51;1.55;;;1.38;;
15608;SDS011;64278;45.642;13.756;2023-05-16T14:01:17;2.17;;;1.38;;
15608;SDS011;64278;45.642;13.756;2023-05-16T14:03:43;1.70;;;1.60;;
15608;SDS011;64278;45.642;13.756;2023-05-16T14:06:08;1.75;;;1.45;;
15608;SDS011;64278;45.642;13.756;2023-05-16T14:08:34;2.15;;;1.40;;
15608;SDS011;64278;45.642;13.756;2023-05-16T14:11:00;2.67;;;1.77;;
15608;SDS011;64278;45.642;13.756;2023-05-16T14:13:26;1.92;;;1.40;;
15608;SDS011;64278;45.642;13.756;2023-05-16T14:15:52;2.13;;;1.45;;
15608;SDS011;64278;45.642;13.756;2023-05-16T14:18:17;1.90;;;1.63;;
15608;SDS011;64278;45.642;13.756;2023-05-16T14:20:43;2.05;;;1.58;;
15608;SDS011;64278;45.642;13.756;2023-05-16T14:23:09;2.63;;;1.67;;
15608;SDS011;64278;45.642;13.756;2023-05-16T14:25:34;1.65;;;1.40;;
15608;SDS011;64278;45.642;13.756;2023-05-16T14:28:00;2.25;;;1.40;;
15608;SDS011;64278;45.642;13.756;2023-05-16T14:30:26;1.67;;;1.30;;
15608;SDS011;64278;45.642;13.756;2023-05-16T14:32:51;1.48;;;1.38;;
15608;SDS011;64278;45.642;13.756;2023-05-16T14:35:17;1.73;;;1.63;;
15608;SDS011;64278;45.642;13.756;2023-05-16T14:37:43;2.63;;;1.80;;
15608;SDS011;64278;45.642;13.756;2023-05-16T14:40:09;2.42;;;1.73;;
15608;SDS011;64278;45.642;13.756;2023-05-16T14:42:35;3.08;;;2.30;;
15608;SDS011;64278;45.642;13.756;2023-05-16T14:45:00;2.38;;;1.70;;
15608;SDS011;64278;45.642;13.756;2023-05-16T14:47:26;4.53;;;1.63;;
15608;SDS011;64278;45.642;13.756;2023-05-16T14:49:55;1.80;;;1.50;;
15608;SDS011;64278;45.642;13.756;2023-05-16T14:52:20;2.60;;;1.60;;
15608;SDS011;64278;45.642;13.756;2023-05-16T14:54:46;3.22;;;1.85;;